Time;durP1;ratioP1;P1;durP2;ratioP2;P2;SDS_P1;SDS_P2;PMS_P1;PMS_P2;Temp;Humidity;BMP_temperature;BMP_pressure;BME280_temperature;BME280_humidity;BME280_pressure;Samples;Min_cycle;Max_cycle;Signal;HPM_P1;HPM_P2
2023/04/01 00:00:01;;;;;;;4.00;2.20;;;11.00;87.00;;;;;;5040916;28;20056;-80
2023/04/01 00:02:28;;;;;;;6.50;2.63;;;11.00;87.00;;;;;;5041483;28;20367;-80
2023/04/01 00:04:55;;;;;;;4.30;2.05;;;11.00;87.10;;;;;;5019621;28;20046;-80
2023/04/01 00:07:22;;;;;;;4.30;2.00;;;11.00;87.00;;;;;;5038023;28;20058;-80
2023/04/01 00:09:49;;;;;;;4.95;1.90;;;11.00;87.00;;;;;;5037835;28;20445;-80
2023/04/01 00:12:16;;;;;;;4.23;1.70;;;11.00;87.00;;;;;;5049929;28;20057;-80
2023/04/01 00:14:43;;;;;;;3.83;1.80;;;11.00;87.00;;;;;;5039534;28;20412;-80
2023/04/01 00:17:11;;;;;;;4.60;1.70;;;11.00;86.90;;;;;;5037582;28;20137;-80
2023/04/01 00:19:39;;;;;;;3.67;1.80;;;11.00;87.00;;;;;;5045361;28;20057;-80
2023/04/01 00:22:06;;;;;;;4.50;1.70;;;11.00;86.90;;;;;;5038443;28;20058;-80
2023/04/01 00:24:34;;;;;;;4.80;1.80;;;11.00;87.00;;;;;;5035773;28;20069;-80
2023/04/01 00:27:01;;;;;;;3.95;1.65;;;11.00;87.00;;;;;;5025154;28;20253;-80
2023/04/01 00:29:30;;;;;;;3.97;1.50;;;11.00;86.90;;;;;;5021274;28;20463;-80
2023/04/01 00:31:58;;;;;;;4.38;1.40;;;11.00;87.00;;;;;;5036933;28;20564;-80
2023/04/01 00:34:26;;;;;;;4.55;1.35;;;11.00;86.90;;;;;;5043834;28;20077;-80
2023/04/01 00:36:54;;;;;;;3.43;1.20;;;11.00;86.90;;;;;;5024129;28;20098;-80
2023/04/01 00:39:21;;;;;;;2.92;1.00;;;11.00;86.90;;;;;;5026093;28;20249;-80
2023/04/01 00:41:48;;;;;;;3.72;1.20;;;11.00;86.90;;;;;;5040586;28;20060;-80
2023/04/01 00:44:21;;;;;;;3.58;1.30;;;11.00;86.90;;;;;;5046091;28;20056;-81
2023/04/01 00:46:48;;;;;;;4.10;1.42;;;11.00;86.80;;;;;;5019490;28;20050;-81
2023/04/01 00:49:16;;;;;;;4.10;1.20;;;11.00;86.80;;;;;;5013680;28;20141;-80
2023/04/01 00:51:47;;;;;;;3.05;1.13;;;11.00;86.80;;;;;;5037615;28;20373;-80
2023/04/01 00:54:17;;;;;;;2.70;0.80;;;11.00;86.80;;;;;;5043289;28;20106;-80
2023/04/01 00:56:49;;;;;;;3.60;0.60;;;11.00;86.70;;;;;;5028391;28;20142;-80
2023/04/01 00:59:21;;;;;;;2.70;0.70;;;11.00;86.70;;;;;;5023799;28;20058;-80
2023/04/01 01:01:48;;;;;;;3.20;0.90;;;10.90;86.70;;;;;;5031244;28;20046;-80
2023/04/01 01:04:28;;;;;;;2.90;1.10;;;10.90;86.70;;;;;;5014993;28;20257;-80
2023/04/01 01:07:09;;;;;;;2.88;1.05;;;10.90;86.70;;;;;;5018817;28;20057;-80
2023/04/01 01:09:46;;;;;;;3.42;1.00;;;10.90;86.80;;;;;;5030051;28;20741;-80
2023/04/01 01:12:17;;;;;;;3.30;0.90;;;10.80;86.80;;;;;;5027495;28;20053;-80
2023/04/01 01:14:56;;;;;;;2.57;0.80;;;10.80;86.90;;;;;;5014887;28;20111;-80
2023/04/01 01:17:32;;;;;;;3.53;0.90;;;10.80;86.90;;;;;;5039006;28;20825;-80
2023/04/01 01:20:35;;;;;;;3.05;0.80;;;10.80;87.00;;;;;;5043581;28;20546;-81
2023/04/01 01:23:35;;;;;;;3.13;0.90;;;10.80;87.00;;;;;;5042541;28;20113;-80
2023/04/01 01:26:17;;;;;;;3.63;1.20;;;10.80;87.00;;;;;;5037863;28;20687;-80
2023/04/01 01:28:53;;;;;;;2.90;1.00;;;10.70;87.10;;;;;;5032276;28;20050;-80
2023/04/01 01:31:27;;;;;;;3.50;1.30;;;10.70;87.10;;;;;;5026877;28;20258;-80
2023/04/01 01:34:12;;;;;;;3.15;1.08;;;10.70;87.20;;;;;;5026101;28;20046;-80
2023/04/01 01:36:44;;;;;;;4.43;1.60;;;10.70;87.20;;;;;;5028622;28;20053;-80
2023/04/01 01:39:14;;;;;;;4.13;1.40;;;10.70;87.20;;;;;;5015425;28;20046;-80
2023/04/01 01:41:46;;;;;;;3.23;1.23;;;10.70;87.20;;;;;;5029667;28;20081;-80
2023/04/01 01:44:16;;;;;;;3.30;1.30;;;10.70;87.30;;;;;;5031656;28;20300;-80
2023/04/01 01:46:44;;;;;;;3.50;1.50;;;10.70;87.30;;;;;;5025314;28;20095;-80
2023/04/01 01:49:13;;;;;;;4.20;1.80;;;10.70;87.40;;;;;;5019401;28;20077;-80
2023/04/01 01:51:42;;;;;;;3.72;1.70;;;10.70;87.40;;;;;;5022728;28;20128;-79
2023/04/01 01:54:13;;;;;;;3.60;1.50;;;10.70;87.50;;;;;;5014168;28;20141;-80
2023/04/01 01:56:42;;;;;;;5.55;1.98;;;10.70;87.50;;;;;;5021008;28;20332;-80
2023/04/01 01:59:12;;;;;;;3.60;1.40;;;10.70;87.50;;;;;;5019745;28;20613;-80
2023/04/01 02:01:44;;;;;;;4.10;1.70;;;10.70;87.50;;;;;;5020224;28;20562;-80
2023/04/01 02:04:15;;;;;;;4.25;1.98;;;10.70;87.50;;;;;;5030788;28;20061;-80
2023/04/01 02:06:52;;;;;;;4.60;1.83;;;10.70;87.40;;;;;;5024244;28;20057;-80
2023/04/01 02:09:20;;;;;;;4.18;1.77;;;10.70;87.40;;;;;;5040416;28;20284;-80
2023/04/01 02:11:50;;;;;;;3.75;1.80;;;10.70;87.50;;;;;;5021026;28;20133;-80
2023/04/01 02:14:21;;;;;;;4.88;2.10;;;10.70;87.50;;;;;;5025301;28;20058;-80
2023/04/01 02:16:56;;;;;;;5.03;1.85;;;10.70;87.50;;;;;;5022468;28;20120;-80
2023/04/01 02:19:28;;;;;;;3.97;1.60;;;10.70;87.60;;;;;;5022759;28;20045;-80
2023/04/01 02:22:00;;;;;;;4.85;1.80;;;10.80;87.60;;;;;;5030130;28;20249;-80
2023/04/01 02:24:30;;;;;;;5.00;2.22;;;10.80;87.60;;;;;;5018541;28;20093;-80
2023/04/01 02:26:56;;;;;;;4.30;1.77;;;10.80;87.60;;;;;;5028794;28;20056;-80
2023/04/01 02:29:25;;;;;;;4.35;1.58;;;10.80;87.60;;;;;;5030453;28;20046;-80
2023/04/01 02:31:53;;;;;;;4.03;1.60;;;10.80;87.50;;;;;;5041190;28;20443;-80
2023/04/01 02:34:22;;;;;;;3.50;1.40;;;10.80;87.50;;;;;;5023981;28;21264;-80
2023/04/01 02:36:50;;;;;;;4.25;1.52;;;10.80;87.50;;;;;;5012844;28;20520;-80
2023/04/01 02:39:19;;;;;;;4.40;1.80;;;10.80;87.50;;;;;;5023262;28;20530;-80
2023/04/01 02:41:47;;;;;;;4.57;1.85;;;10.80;87.50;;;;;;5020236;28;20486;-80
2023/04/01 02:44:16;;;;;;;4.83;1.90;;;10.80;87.50;;;;;;5039287;28;20045;-80
2023/04/01 02:46:53;;;;;;;4.43;1.90;;;10.90;87.40;;;;;;5123761;27;20393;-81
2023/04/01 02:49:21;;;;;;;5.70;2.25;;;10.90;87.40;;;;;;5104390;27;20040;-80
2023/04/01 02:51:48;;;;;;;4.72;2.05;;;10.90;87.40;;;;;;5103403;27;20056;-81
2023/04/01 02:54:15;;;;;;;4.25;1.80;;;10.90;87.30;;;;;;5123953;27;20527;-81
2023/04/01 02:56:43;;;;;;;4.25;2.00;;;10.90;87.40;;;;;;5106363;27;20048;-81
2023/04/01 02:59:10;;;;;;;3.93;1.83;;;10.90;87.30;;;;;;5107058;27;20067;-80
2023/04/01 03:01:36;;;;;;;4.18;2.03;;;11.00;87.30;;;;;;5124502;27;20157;-81
2023/04/01 03:04:05;;;;;;;4.40;1.80;;;11.00;87.30;;;;;;5124371;27;20052;-81
2023/04/01 03:06:32;;;;;;;5.20;1.95;;;11.00;87.20;;;;;;5116806;27;20062;-80
2023/04/01 03:08:59;;;;;;;3.90;1.80;;;11.00;87.20;;;;;;5105650;27;20047;-80
2023/04/01 03:11:27;;;;;;;3.63;1.60;;;10.90;87.20;;;;;;5105473;27;20052;-80
2023/04/01 03:13:54;;;;;;;4.65;1.70;;;11.00;87.20;;;;;;5106968;27;20536;-80
2023/04/01 03:16:21;;;;;;;3.80;1.65;;;11.00;87.20;;;;;;5123947;27;20175;-80
2023/04/01 03:18:52;;;;;;;4.32;1.70;;;11.00;87.20;;;;;;5106141;27;20063;-81
2023/04/01 03:21:22;;;;;;;3.80;1.60;;;10.90;87.20;;;;;;5107037;27;20493;-80
2023/04/01 03:23:50;;;;;;;4.33;1.67;;;10.90;87.20;;;;;;5106988;27;20048;-80
2023/04/01 03:26:17;;;;;;;4.72;1.73;;;11.00;87.20;;;;;;5105382;27;20125;-80
2023/04/01 03:28:46;;;;;;;4.75;1.65;;;11.00;87.20;;;;;;5107113;27;20052;-81
2023/04/01 03:31:14;;;;;;;4.55;2.00;;;10.90;87.20;;;;;;5106847;27;20058;-81
2023/04/01 03:33:48;;;;;;;4.70;1.90;;;10.90;87.20;;;;;;5106542;27;20602;-80
2023/04/01 03:36:15;;;;;;;4.53;1.93;;;11.00;87.20;;;;;;5106322;27;20112;-80
2023/04/01 03:38:44;;;;;;;4.88;2.15;;;11.00;87.20;;;;;;5106643;27;20050;-80
2023/04/01 03:41:14;;;;;;;4.82;2.10;;;10.90;87.20;;;;;;5106647;27;20052;-80
2023/04/01 03:43:41;;;;;;;5.47;2.20;;;10.90;87.20;;;;;;5122319;27;20597;-81
2023/04/01 03:46:08;;;;;;;4.88;2.25;;;10.90;87.20;;;;;;5106068;27;20244;-80
2023/04/01 03:48:35;;;;;;;6.50;2.70;;;10.90;87.30;;;;;;5107022;27;20052;-80
2023/04/01 03:51:02;;;;;;;5.30;2.60;;;10.90;87.30;;;;;;5106411;27;20552;-81
2023/04/01 03:53:30;;;;;;;5.32;2.40;;;10.90;87.30;;;;;;5106424;27;20052;-81
2023/04/01 03:56:06;;;;;;;5.70;2.45;;;10.90;87.30;;;;;;5105437;27;20040;-80
2023/04/01 03:58:34;;;;;;;4.60;2.33;;;10.90;87.30;;;;;;5092401;28;20503;-80
2023/04/01 04:01:02;;;;;;;4.33;2.00;;;10.90;87.30;;;;;;5091159;28;20494;-81
2023/04/01 04:03:31;;;;;;;4.70;2.45;;;10.90;87.30;;;;;;5092797;28;20648;-80
2023/04/01 04:05:59;;;;;;;5.20;2.22;;;10.90;87.30;;;;;;5092406;28;20047;-80
2023/04/01 04:08:26;;;;;;;4.45;2.10;;;10.90;87.30;;;;;;5092235;28;20051;-80
2023/04/01 04:10:57;;;;;;;4.40;1.92;;;10.90;87.30;;;;;;5091910;28;20106;-80
2023/04/01 04:13:25;;;;;;;5.23;2.03;;;10.90;87.40;;;;;;5092257;28;20044;-81
2023/04/01 04:15:59;;;;;;;4.25;1.75;;;10.90;87.40;;;;;;5092183;28;20056;-81
2023/04/01 04:18:27;;;;;;;4.32;1.92;;;10.90;87.40;;;;;;5091309;28;20048;-80
2023/04/01 04:20:55;;;;;;;4.07;1.80;;;10.90;87.40;;;;;;5091596;28;20044;-80
2023/04/01 04:23:22;;;;;;;5.03;2.13;;;11.00;87.30;;;;;;5092244;28;20040;-81
2023/04/01 04:25:57;;;;;;;4.10;1.90;;;10.90;87.30;;;;;;5091226;28;20139;-81
2023/04/01 04:28:27;;;;;;;4.47;1.95;;;11.00;87.30;;;;;;5091354;28;20058;-81
2023/04/01 04:30:54;;;;;;;5.13;2.05;;;11.00;87.30;;;;;;5092005;28;20102;-81
2023/04/01 04:33:23;;;;;;;4.20;1.70;;;11.00;87.30;;;;;;5092238;28;20049;-81
2023/04/01 04:35:50;;;;;;;4.57;1.85;;;11.00;87.20;;;;;;5086750;28;20662;-80
2023/04/01 04:38:18;;;;;;;4.53;1.80;;;11.00;87.30;;;;;;5092066;28;20040;-80
2023/04/01 04:40:45;;;;;;;4.00;1.63;;;10.90;87.30;;;;;;5092213;28;20056;-81
2023/04/01 04:43:13;;;;;;;4.38;1.73;;;10.90;87.30;;;;;;5126512;27;20430;-80
2023/04/01 04:45:42;;;;;;;4.00;1.83;;;10.90;87.30;;;;;;5108992;28;20052;-81
2023/04/01 04:48:12;;;;;;;5.15;2.10;;;10.90;87.30;;;;;;5092328;28;20076;-80
2023/04/01 04:50:41;;;;;;;5.00;2.10;;;10.90;87.30;;;;;;5091728;28;20058;-80
2023/04/01 04:53:10;;;;;;;4.95;1.90;;;10.90;87.30;;;;;;5090204;28;20055;-80
2023/04/01 04:55:37;;;;;;;4.28;1.75;;;10.90;87.30;;;;;;5091857;28;20044;-80
2023/04/01 04:58:19;;;;;;;4.13;1.75;;;10.90;87.40;;;;;;5091575;28;20051;-81
2023/04/01 05:00:48;;;;;;;4.47;1.83;;;10.90;87.40;;;;;;5090754;28;20550;-80
2023/04/01 05:03:23;;;;;;;5.03;1.90;;;10.90;87.40;;;;;;5092151;28;20585;-80
2023/04/01 05:05:51;;;;;;;4.40;1.70;;;10.90;87.40;;;;;;5091784;28;20521;-80
2023/04/01 05:08:19;;;;;;;4.72;1.90;;;11.00;87.40;;;;;;5107896;27;21005;-80
2023/04/01 05:10:47;;;;;;;4.38;1.70;;;11.00;87.40;;;;;;5107599;28;20063;-81
2023/04/01 05:13:15;;;;;;;5.00;1.90;;;11.00;87.40;;;;;;5090960;28;20079;-80
2023/04/01 05:15:43;;;;;;;5.50;2.00;;;11.00;87.30;;;;;;5071539;28;20151;-80
2023/04/01 05:18:12;;;;;;;4.47;2.00;;;11.00;87.30;;;;;;5080053;28;20498;-80
2023/04/01 05:20:39;;;;;;;5.03;2.13;;;11.00;87.30;;;;;;5114388;27;20534;-80
2023/04/01 05:23:06;;;;;;;4.70;1.92;;;11.00;87.30;;;;;;5091617;28;20465;-80
2023/04/01 05:25:34;;;;;;;4.55;1.65;;;11.00;87.40;;;;;;5091488;28;20048;-80
2023/04/01 05:28:01;;;;;;;5.10;1.80;;;11.00;87.40;;;;;;5090893;28;20153;-80
2023/04/01 05:30:29;;;;;;;4.30;1.90;;;11.00;87.40;;;;;;5091270;28;20051;-80
2023/04/01 05:33:01;;;;;;;5.30;1.83;;;11.00;87.40;;;;;;5091521;28;20047;-80
2023/04/01 05:35:30;;;;;;;4.97;2.08;;;11.00;87.40;;;;;;5091442;28;20136;-81
2023/04/01 05:37:57;;;;;;;4.30;1.70;;;11.00;87.40;;;;;;5106844;28;20052;-80
2023/04/01 05:40:24;;;;;;;4.53;1.90;;;11.00;87.40;;;;;;5108163;28;20048;-80
2023/04/01 05:42:51;;;;;;;4.35;1.73;;;11.00;87.40;;;;;;5091261;28;20052;-80
2023/04/01 05:45:19;;;;;;;4.30;1.58;;;11.00;87.30;;;;;;5089204;28;20113;-81
2023/04/01 05:48:05;;;;;;;4.55;1.80;;;11.00;87.30;;;;;;5108068;28;20048;-80
2023/04/01 05:50:41;;;;;;;4.50;1.80;;;11.00;87.30;;;;;;5107883;28;20048;-81
2023/04/01 05:53:08;;;;;;;4.43;1.60;;;11.00;87.40;;;;;;5091308;28;20048;-81
2023/04/01 05:55:38;;;;;;;4.10;1.65;;;11.00;87.30;;;;;;5090822;28;20134;-80
2023/04/01 05:58:05;;;;;;;4.10;1.80;;;11.00;87.30;;;;;;5091472;28;20117;-81
2023/04/01 06:00:33;;;;;;;4.50;1.83;;;11.00;87.30;;;;;;5091475;28;20098;-80
2023/04/01 06:03:01;;;;;;;4.63;2.00;;;11.00;87.30;;;;;;5106969;28;20048;-81
2023/04/01 06:05:30;;;;;;;4.93;2.03;;;11.00;87.40;;;;;;5090910;28;20052;-80
2023/04/01 06:08:01;;;;;;;6.80;2.50;;;11.00;87.30;;;;;;5091157;28;20052;-81
2023/04/01 06:10:40;;;;;;;5.60;2.42;;;11.10;87.40;;;;;;5090774;28;20048;-81
2023/04/01 06:13:13;;;;;;;6.30;2.83;;;11.10;87.40;;;;;;5090489;28;20048;-81
2023/04/01 06:15:44;;;;;;;6.78;3.30;;;11.00;87.30;;;;;;5087895;28;20147;-81
2023/04/01 06:18:53;;;;;;;6.57;3.17;;;11.10;87.40;;;;;;5107822;28;21047;-81
2023/04/01 06:21:43;;;;;;;6.88;3.13;;;11.10;87.40;;;;;;5088300;28;20174;-81
2023/04/01 06:24:27;;;;;;;7.63;3.22;;;11.10;87.40;;;;;;5088219;28;20076;-80
2023/04/01 06:27:05;;;;;;;8.52;4.05;;;11.10;87.40;;;;;;5090526;28;20059;-80
2023/04/01 06:29:56;;;;;;;8.82;4.25;;;11.10;87.40;;;;;;5090359;28;20078;-81
2023/04/01 06:32:58;;;;;;;8.50;4.17;;;11.10;87.40;;;;;;5108055;28;20044;-80
2023/04/01 06:35:53;;;;;;;7.53;3.85;;;11.10;87.40;;;;;;5090102;28;20131;-80
2023/04/01 06:38:36;;;;;;;7.85;4.22;;;11.10;87.40;;;;;;5087774;28;20494;-81
2023/04/01 06:41:22;;;;;;;7.65;4.00;;;11.10;87.40;;;;;;5082642;28;20052;-80
2023/04/01 06:43:58;;;;;;;6.00;3.38;;;11.10;87.50;;;;;;5076330;28;20048;-81
2023/04/01 06:46:47;;;;;;;6.37;3.07;;;11.10;87.50;;;;;;5107157;28;20048;-80
2023/04/01 06:49:49;;;;;;;6.43;2.80;;;11.10;87.50;;;;;;5104818;27;20718;-80
2023/04/01 06:52:45;;;;;;;6.05;2.55;;;11.10;87.40;;;;;;5104632;27;20051;-81
2023/04/01 06:55:42;;;;;;;6.13;2.47;;;11.10;87.50;;;;;;5105541;27;20163;-81
2023/04/01 06:58:35;;;;;;;5.70;2.35;;;11.10;87.40;;;;;;5119105;22;20040;-81
2023/04/01 07:01:05;;;;;;;6.27;2.37;;;11.10;87.50;;;;;;5016338;28;20051;-80
2023/04/01 07:03:36;;;;;;;5.38;2.17;;;11.10;87.50;;;;;;5011646;28;20088;-80
2023/04/01 07:06:11;;;;;;;5.47;2.08;;;11.10;87.60;;;;;;5009593;28;20061;-80
2023/04/01 07:08:45;;;;;;;4.47;2.00;;;11.10;87.60;;;;;;5009953;28;20058;-81
2023/04/01 07:11:22;;;;;;;5.88;2.53;;;11.10;87.70;;;;;;5012120;28;20053;-81
2023/04/01 07:14:17;;;;;;;5.00;2.00;;;11.10;87.70;;;;;;5026400;28;20053;-81
2023/04/01 07:16:49;;;;;;;5.25;2.03;;;11.10;87.70;;;;;;5006573;28;20502;-81
2023/04/01 07:19:22;;;;;;;6.22;2.40;;;11.10;87.70;;;;;;5011563;28;20538;-81
2023/04/01 07:22:05;;;;;;;4.68;2.05;;;11.10;87.70;;;;;;5014982;28;20144;-80
2023/04/01 07:24:57;;;;;;;5.80;2.25;;;11.10;87.80;;;;;;5028057;28;20052;-82
2023/04/01 07:27:25;;;;;;;4.80;2.03;;;11.10;87.80;;;;;;5011314;28;20100;-82
2023/04/01 07:29:56;;;;;;;5.10;2.20;;;11.10;87.80;;;;;;5011206;28;20131;-82
2023/04/01 07:32:35;;;;;;;5.88;2.42;;;11.10;87.90;;;;;;5012013;28;20514;-82
2023/04/01 07:35:24;;;;;;;5.20;2.00;;;11.20;87.90;;;;;;5046378;28;20056;-82
2023/04/01 07:38:12;;;;;;;3.80;1.70;;;11.20;88.00;;;;;;5014172;28;20112;-81
2023/04/01 07:40:46;;;;;;;4.33;1.70;;;11.20;88.00;;;;;;5009605;28;20053;-81
2023/04/01 07:43:56;;;;;;;4.93;1.80;;;11.30;87.90;;;;;;5013807;28;20136;-81
2023/04/01 07:46:45;;;;;;;4.53;1.90;;;11.30;87.90;;;;;;4988807;28;20252;-81
2023/04/01 07:49:18;;;;;;;5.55;2.45;;;11.30;87.80;;;;;;5015501;28;20188;-81
2023/04/01 07:51:55;;;;;;;6.50;3.00;;;11.30;87.80;;;;;;5029008;28;20072;-80
2023/04/01 07:54:32;;;;;;;7.63;3.67;;;11.30;87.80;;;;;;5047466;28;20052;-81
2023/04/01 07:57:06;;;;;;;5.85;2.72;;;11.40;87.80;;;;;;5046435;28;20055;-79
2023/04/01 07:59:56;;;;;;;6.13;3.17;;;11.40;87.90;;;;;;5015627;28;21117;-81
2023/04/01 08:02:43;;;;;;;8.43;3.15;;;11.40;87.80;;;;;;5030180;28;20132;-76
2023/04/01 08:05:20;;;;;;;7.13;3.25;;;11.40;87.90;;;;;;5030533;28;20046;-81
2023/04/01 08:07:56;;;;;;;6.87;3.10;;;11.40;87.80;;;;;;5051192;28;20064;-82
2023/04/01 08:10:51;;;;;;;7.70;3.20;;;11.40;87.80;;;;;;5045020;28;20050;-79
2023/04/01 08:13:41;;;;;;;6.80;3.00;;;11.40;87.80;;;;;;5063034;28;20045;-79
2023/04/01 08:16:51;;;;;;;7.28;3.53;;;11.50;87.70;;;;;;4990472;28;20195;-79
2023/04/01 08:19:34;;;;;;;7.47;3.42;;;11.50;87.70;;;;;;5022992;28;20053;-79
2023/04/01 08:22:09;;;;;;;6.63;3.30;;;11.50;87.60;;;;;;5010854;28;20061;-80
2023/04/01 08:24:41;;;;;;;7.82;3.50;;;11.50;87.60;;;;;;5029224;28;20053;-75
2023/04/01 08:27:18;;;;;;;7.47;3.45;;;11.50;87.70;;;;;;5013708;28;20613;-78
2023/04/01 08:29:50;;;;;;;8.27;3.40;;;11.50;87.60;;;;;;5042614;28;20073;-80
2023/04/01 08:32:23;;;;;;;8.60;3.60;;;11.50;87.60;;;;;;5018912;28;20103;-81
2023/04/01 08:34:59;;;;;;;6.80;3.17;;;11.50;87.60;;;;;;5016260;28;20140;-80
2023/04/01 08:37:38;;;;;;;7.13;3.80;;;11.50;87.60;;;;;;5040882;28;20790;-79
2023/04/01 08:40:29;;;;;;;8.05;3.28;;;11.50;87.60;;;;;;5008994;28;20579;-79
2023/04/01 08:43:09;;;;;;;6.35;2.90;;;11.50;87.60;;;;;;5021021;28;20131;-79
2023/04/01 08:45:51;;;;;;;4.55;1.60;;;11.50;87.50;;;;;;5007249;28;20042;-80
2023/04/01 08:48:46;;;;;;;6.47;1.93;;;11.50;87.40;;;;;;5061774;28;20080;-79
2023/04/01 08:51:42;;;;;;;5.03;1.85;;;11.50;87.40;;;;;;5012075;28;20133;-80
2023/04/01 08:54:44;;;;;;;4.15;1.60;;;11.50;87.50;;;;;;5023135;22;20061;-76
2023/04/01 08:57:22;;;;;;;5.10;1.60;;;11.50;87.60;;;;;;5004121;28;20133;-77
2023/04/01 09:00:22;;;;;;;4.35;1.52;;;11.50;87.60;;;;;;4986800;28;20043;-77
2023/04/01 09:03:26;;;;;;;3.23;1.00;;;11.50;87.60;;;;;;5003351;28;20058;-77
2023/04/01 09:06:27;;;;;;;3.50;1.00;;;11.60;87.60;;;;;;4973931;28;20074;-77
2023/04/01 09:09:21;;;;;;;3.10;1.10;;;11.50;87.60;;;;;;4977745;28;20121;-81
2023/04/01 09:12:27;;;;;;;4.03;1.15;;;11.60;87.60;;;;;;4981015;28;20200;-81
2023/04/01 09:15:39;;;;;;;6.78;1.63;;;11.60;87.50;;;;;;4975465;28;20053;-80
2023/04/01 09:18:42;;;;;;;5.67;1.83;;;11.60;87.50;;;;;;4966698;28;20058;-80
2023/04/01 09:21:45;;;;;;;5.93;2.40;;;11.70;87.50;;;;;;4969341;28;20136;-80
2023/04/01 09:24:32;;;;;;;6.07;2.47;;;11.70;87.50;;;;;;4984781;28;20058;-80
2023/04/01 09:27:05;;;;;;;6.60;2.67;;;11.70;87.40;;;;;;4970455;28;20662;-80
2023/04/01 09:30:02;;;;;;;6.80;3.20;;;11.70;87.50;;;;;;4976503;28;20086;-80
2023/04/01 09:32:52;;;;;;;6.97;3.10;;;11.70;87.50;;;;;;4973806;28;20990;-80
2023/04/01 09:35:32;;;;;;;7.43;3.22;;;11.70;87.50;;;;;;5007011;28;20712;-80
2023/04/01 09:38:16;;;;;;;7.47;3.42;;;11.70;87.40;;;;;;4977875;28;20551;-80
2023/04/01 09:40:54;;;;;;;8.05;3.65;;;11.80;87.40;;;;;;4986021;28;20903;-80
2023/04/01 09:43:52;;;;;;;8.50;3.95;;;11.90;87.50;;;;;;5004622;28;20555;-80
2023/04/01 09:46:32;;;;;;;8.70;4.13;;;11.90;87.50;;;;;;4973478;28;20043;-80
2023/04/01 09:49:21;;;;;;;9.35;4.07;;;11.90;87.50;;;;;;4973005;28;20144;-80
2023/04/01 09:51:58;;;;;;;8.30;4.05;;;11.90;87.50;;;;;;4970887;28;20059;-80
2023/04/01 09:54:36;;;;;;;9.35;4.68;;;11.90;87.50;;;;;;4988019;28;20039;-79
2023/04/01 09:57:35;;;;;;;8.88;4.38;;;11.90;87.40;;;;;;4971233;28;20053;-80
2023/04/01 10:00:40;;;;;;;8.47;3.93;;;12.00;87.30;;;;;;4970534;28;20059;-79
2023/04/01 10:03:59;;;;;;;8.73;4.32;;;12.00;87.20;;;;;;4981658;28;20083;-80
2023/04/01 10:07:02;;;;;;;10.13;4.05;;;12.00;87.10;;;;;;5007001;22;20562;-80
2023/04/01 10:10:10;;;;;;;9.07;4.85;;;12.00;87.10;;;;;;5019234;28;20506;-81
2023/04/01 10:13:00;;;;;;;8.85;4.70;;;12.00;87.10;;;;;;4998661;28;20986;-80
2023/04/01 10:15:48;;;;;;;8.93;4.47;;;12.00;87.00;;;;;;5007129;28;20585;-81
2023/04/01 10:18:46;;;;;;;7.75;4.20;;;12.00;87.00;;;;;;5007692;28;20050;-80
2023/04/01 10:22:06;;;;;;;8.82;4.65;;;12.10;87.00;;;;;;5025579;28;20081;-79
2023/04/01 10:25:19;;;;;;;10.10;5.07;;;12.10;87.00;;;;;;4972241;28;20053;-80
2023/04/01 10:28:22;;;;;;;8.80;4.60;;;12.10;87.00;;;;;;4957357;28;20113;-79
2023/04/01 10:32:01;;;;;;;9.20;4.77;;;12.10;86.90;;;;;;5024607;28;20045;-79
2023/04/01 10:35:10;;;;;;;9.45;4.78;;;12.20;86.80;;;;;;5021948;28;20050;-79
2023/04/01 10:38:21;;;;;;;10.63;5.10;;;12.20;86.70;;;;;;5002798;28;20053;-80
2023/04/01 10:41:11;;;;;;;9.48;4.78;;;12.20;86.60;;;;;;5000775;28;20056;-79
2023/04/01 10:44:39;;;;;;;10.45;5.28;;;12.20;86.60;;;;;;5023801;28;20095;-79
2023/04/01 10:47:55;;;;;;;10.20;5.50;;;12.20;86.50;;;;;;5023831;28;20056;-79
2023/04/01 10:50:43;;;;;;;9.52;4.85;;;12.20;86.30;;;;;;4954382;28;20168;-78
2023/04/01 10:53:52;;;;;;;9.52;5.03;;;12.20;86.30;;;;;;4999409;28;20050;-80
2023/04/01 10:56:46;;;;;;;9.98;4.80;;;12.20;86.20;;;;;;5026500;28;20038;-79
2023/04/01 11:00:24;;;;;;;7.95;3.90;;;12.20;86.10;;;;;;5023008;28;20046;-79
2023/04/01 11:03:45;;;;;;;5.87;2.90;;;12.30;86.00;;;;;;5016307;28;20050;-79
2023/04/01 11:07:13;;;;;;;6.20;2.80;;;12.30;86.00;;;;;;5023429;28;20181;-79
2023/04/01 11:10:23;;;;;;;5.15;2.60;;;12.30;86.00;;;;;;5020730;28;20807;-81
2023/04/01 11:13:16;;;;;;;5.25;2.80;;;12.30;85.70;;;;;;5011978;28;20073;-81
2023/04/01 11:16:24;;;;;;;5.30;2.70;;;12.30;85.70;;;;;;5008275;28;20119;-81
2023/04/01 11:19:20;;;;;;;5.57;2.87;;;12.30;85.50;;;;;;5006748;28;20130;-80
2023/04/01 11:22:19;;;;;;;5.18;2.65;;;12.30;85.40;;;;;;5006701;28;20050;-80
2023/04/01 11:25:19;;;;;;;6.00;3.20;;;12.30;85.30;;;;;;5033531;28;20046;-78
2023/04/01 11:28:25;;;;;;;6.80;2.80;;;12.30;85.20;;;;;;5019416;28;20144;-79
2023/04/01 11:31:29;;;;;;;5.53;2.75;;;12.30;85.00;;;;;;5010807;28;20045;-80
2023/04/01 11:34:06;;;;;;;5.40;2.77;;;12.30;84.80;;;;;;5014242;28;20053;-80
2023/04/01 11:36:46;;;;;;;6.05;2.60;;;12.30;84.70;;;;;;5005781;28;20082;-79
2023/04/01 11:39:28;;;;;;;5.95;2.90;;;12.20;84.70;;;;;;5009934;28;20667;-80
2023/04/01 11:42:38;;;;;;;4.82;2.53;;;12.30;84.50;;;;;;5014823;28;20551;-80
2023/04/01 11:45:40;;;;;;;5.22;2.50;;;12.20;84.40;;;;;;4974319;28;20057;-80
2023/04/01 11:48:27;;;;;;;4.53;2.33;;;12.20;84.30;;;;;;5026858;28;20062;-81
2023/04/01 11:51:26;;;;;;;4.82;2.20;;;12.20;84.20;;;;;;5010329;28;20046;-80
2023/04/01 11:54:04;;;;;;;4.35;1.88;;;12.20;84.00;;;;;;5022555;28;20053;-79
2023/04/01 11:57:00;;;;;;;4.18;1.85;;;12.10;84.00;;;;;;5024687;28;20050;-80
2023/04/01 11:59:54;;;;;;;3.97;1.95;;;12.10;83.90;;;;;;5008488;28;20053;-79
2023/04/01 12:02:29;;;;;;;4.43;2.10;;;12.10;83.90;;;;;;5006405;28;20133;-80
2023/04/01 12:05:18;;;;;;;4.65;2.00;;;12.10;83.80;;;;;;5019329;28;20105;-80
2023/04/01 12:07:58;;;;;;;4.35;1.70;;;12.10;83.60;;;;;;5014641;28;20050;-80
2023/04/01 12:10:34;;;;;;;3.90;1.90;;;12.00;83.70;;;;;;5027971;28;20111;-80
2023/04/01 12:16:38;;;;;;;4.07;1.87;;;12.00;83.50;;;;;;5003667;28;20137;-79
2023/04/01 12:19:16;;;;;;;3.60;1.83;;;12.00;83.50;;;;;;5005998;28;20987;-79
2023/04/01 12:21:58;;;;;;;4.57;1.88;;;12.00;83.60;;;;;;5005888;28;20062;-80
2023/04/01 12:24:50;;;;;;;4.00;1.90;;;11.90;83.30;;;;;;5006055;28;20474;-83
2023/04/01 12:27:42;;;;;;;3.80;1.83;;;11.90;83.20;;;;;;4994566;28;20054;-80
2023/04/01 12:30:33;;;;;;;3.90;1.73;;;11.90;83.30;;;;;;5009570;28;20054;-80
2023/04/01 12:33:35;;;;;;;3.58;1.63;;;11.90;83.50;;;;;;5005695;28;20072;-80
2023/04/01 12:36:12;;;;;;;3.47;1.70;;;11.90;83.60;;;;;;5007594;28;20161;-80
2023/04/01 12:38:52;;;;;;;3.90;1.70;;;11.90;83.50;;;;;;5007309;28;20326;-80
2023/04/01 12:41:27;;;;;;;3.85;1.50;;;11.90;83.70;;;;;;5004630;28;21049;-80
2023/04/01 12:44:18;;;;;;;3.97;2.03;;;11.80;83.60;;;;;;5004609;28;20082;-80
2023/04/01 12:47:23;;;;;;;3.67;1.60;;;11.80;83.60;;;;;;5022521;28;20101;-81
2023/04/01 12:50:09;;;;;;;4.22;1.92;;;11.70;83.60;;;;;;4954204;28;20055;-80
2023/04/01 12:52:46;;;;;;;4.18;2.05;;;11.70;83.60;;;;;;5002525;28;20909;-81
2023/04/01 12:55:40;;;;;;;4.20;2.15;;;11.70;83.60;;;;;;5008198;28;20504;-81
2023/04/01 12:58:26;;;;;;;4.20;1.93;;;11.70;83.60;;;;;;4988825;28;20051;-81
2023/04/01 13:01:18;;;;;;;3.88;2.00;;;11.70;83.50;;;;;;5007225;28;21061;-81
2023/04/01 13:04:13;;;;;;;4.45;2.08;;;11.70;83.30;;;;;;5006026;28;20157;-80
2023/04/01 13:06:54;;;;;;;4.10;2.03;;;11.70;83.30;;;;;;5001522;28;20121;-81
2023/04/01 13:09:32;;;;;;;4.07;1.83;;;11.70;83.30;;;;;;5014542;28;20065;-81
2023/04/01 13:12:24;;;;;;;4.17;1.60;;;11.70;83.30;;;;;;4996869;28;20165;-80
2023/04/01 13:15:20;;;;;;;3.30;1.70;;;11.70;83.30;;;;;;5021483;28;20074;-80
2023/04/01 13:17:53;;;;;;;4.38;1.75;;;11.60;83.30;;;;;;5000754;28;20051;-80
2023/04/01 13:20:37;;;;;;;3.72;1.42;;;11.60;83.20;;;;;;5007204;28;20149;-81
2023/04/01 13:23:16;;;;;;;4.68;1.55;;;11.50;83.10;;;;;;5001900;28;20078;-80
2023/04/01 13:25:52;;;;;;;3.33;1.50;;;11.50;83.00;;;;;;5005474;28;20046;-80
2023/04/01 13:28:26;;;;;;;3.72;1.77;;;11.50;83.00;;;;;;5006466;28;20615;-80
2023/04/01 13:31:02;;;;;;;3.50;1.60;;;11.50;83.10;;;;;;5005965;28;20054;-80
2023/04/01 13:33:40;;;;;;;3.67;1.65;;;11.50;83.10;;;;;;5008247;28;20108;-80
2023/04/01 13:36:18;;;;;;;3.60;1.80;;;11.50;82.70;;;;;;5006094;28;20081;-81
2023/04/01 13:39:00;;;;;;;3.93;1.70;;;11.50;82.60;;;;;;5003438;28;20542;-81
2023/04/01 13:41:43;;;;;;;4.18;1.73;;;11.50;82.50;;;;;;5005013;28;20125;-79
2023/04/01 13:44:16;;;;;;;4.15;1.83;;;11.50;82.50;;;;;;5001581;28;20066;-80
2023/04/01 13:47:01;;;;;;;4.57;1.70;;;11.50;82.60;;;;;;4997428;28;21026;-80
2023/04/01 13:49:42;;;;;;;3.95;1.85;;;11.50;82.40;;;;;;5016795;28;20527;-79
2023/04/01 13:52:35;;;;;;;5.00;1.80;;;11.40;82.50;;;;;;5006929;28;20053;-79
2023/04/01 13:55:19;;;;;;;4.05;1.52;;;11.40;82.50;;;;;;5004968;28;20068;-78